
Distance (Route):
Temperature : 0°C
Humidity : 0%
Pressure : 0hPa| Receiver | Date | Latitude | Longitude | Direction | Speed | Altitude | Climb | Temperature | Humidity | Pressure | Voltage | Killtimer | Uptime | BKT | XDATA |
|---|---|---|---|---|---|---|---|---|---|---|---|---|---|---|---|
| DB0UT-7 | 2026-09-02 07:48:39 | 46.20680 | 3.73111 | 152° | 120km/h | 9497m | -3.1m/s | 0°C | 0% | 0hPa | 0V | 00:00:00 | 00:00:00 | 00:00:00 | |
| DB0UT-7 | 2026-09-02 07:47:19 | 46.22803 | 3.71356 | 150° | 120km/h | 9762m | -3.4m/s | 0°C | 0% | 0hPa | 0V | 00:00:00 | 00:00:00 | 00:00:00 | |
| DB0UT-7 | 2026-09-02 07:46:47 | 46.23636 | 3.70617 | 149° | 122km/h | 9885m | -3.5m/s | 0°C | 0% | 0hPa | 0V | 00:00:00 | 00:00:00 | 00:00:00 | |
| DB0UT-7 | 2026-09-02 07:45:36 | 46.25512 | 3.68998 | 151° | 124km/h | 10132m | -3.5m/s | 0°C | 0% | 0hPa | 0V | 00:00:00 | 00:00:00 | 00:00:00 | |
| DB0UT-7 | 2026-09-02 07:45:06 | 46.26332 | 3.68342 | 151° | 124km/h | 10237m | -3.5m/s | 0°C | 0% | 0hPa | 0V | 00:00:00 | 00:00:00 | 00:00:00 | |
| DB0UT-7 | 2026-09-02 07:44:34 | 46.27210 | 3.67639 | 152° | 124km/h | 10353m | -3.5m/s | 0°C | 0% | 0hPa | 0V | 00:00:00 | 00:00:00 | 00:00:00 | |
| DB0UT-7 | 2026-09-02 07:44:04 | 46.28042 | 3.66990 | 153° | 124km/h | 10453m | -3.4m/s | 0°C | 0% | 0hPa | 0V | 00:00:00 | 00:00:00 | 00:00:00 | |
| DB0UT-7 | 2026-09-02 07:43:34 | 46.28877 | 3.66351 | 153° | 126km/h | 10558m | -3.4m/s | 0°C | 0% | 0hPa | 0V | 00:00:00 | 00:00:00 | 00:00:00 | |
| DB0UT-7 | 2026-09-02 07:43:04 | 46.29725 | 3.65700 | 152° | 128km/h | 10667m | -3.4m/s | 0°C | 0% | 0hPa | 0V | 00:00:00 | 00:00:00 | 00:00:00 | |
| DB0UT-7 | 2026-09-02 07:42:34 | 46.30578 | 3.65039 | 153° | 128km/h | 10766m | -3.7m/s | 0°C | 0% | 0hPa | 0V | 00:00:00 | 00:00:00 | 00:00:00 | |
| DB0UT-7 | 2026-09-02 07:42:04 | 46.31443 | 3.64404 | 154° | 130km/h | 10882m | -3.7m/s | 0°C | 0% | 0hPa | 0V | 00:00:00 | 00:00:00 | 00:00:00 | |
| DB0UT-7 | 2026-09-02 07:40:26 | 46.34301 | 3.62356 | 156° | 130km/h | 11250m | -4.0m/s | 0°C | 0% | 0hPa | 0V | 00:00:00 | 00:00:00 | 00:00:00 | |
| DB0UT-7 | 2026-09-02 07:39:56 | 46.35200 | 3.61777 | 157° | 131km/h | 11358m | -3.5m/s | 0°C | 0% | 0hPa | 0V | 00:00:00 | 00:00:00 | 00:00:00 | |
| DB0UT-7 | 2026-09-02 07:39:04 | 46.36804 | 3.60828 | 158° | 133km/h | 11536m | -3.6m/s | 0°C | 0% | 0hPa | 0V | 00:00:00 | 00:00:00 | 00:00:00 | |
| DB0UT-7 | 2026-09-02 07:38:34 | 46.37729 | 3.60260 | 159° | 133km/h | 11641m | -3.4m/s | 0°C | 0% | 0hPa | 0V | 00:00:00 | 00:00:00 | 00:00:00 | |
| DB0UT-7 | 2026-09-02 07:38:04 | 46.38674 | 3.59719 | 160° | 133km/h | 11753m | -3.5m/s | 0°C | 0% | 0hPa | 0V | 00:00:00 | 00:00:00 | 00:00:00 | |
| DB0UT-7 | 2026-09-02 07:37:33 | 46.39649 | 3.59180 | 159° | 126km/h | 11856m | -3.6m/s | 0°C | 0% | 0hPa | 0V | 00:00:00 | 00:00:00 | 00:00:00 | |
| DB0UT-7 | 2026-09-02 07:37:02 | 46.40552 | 3.58585 | 156° | 122km/h | 11966m | -3.7m/s | 0°C | 0% | 0hPa | 0V | 00:00:00 | 00:00:00 | 00:00:00 | |
| DB0UT-7 | 2026-09-02 07:36:32 | 46.41378 | 3.57953 | 151° | 120km/h | 12111m | -3.7m/s | 0°C | 0% | 0hPa | 0V | 00:00:00 | 00:00:00 | 00:00:00 | |
| DB0ND-19 | 2026-09-02 07:36:12 | 46.42253 | 3.57227 | 149° | 119km/h | 12192m | -3.8m/s | 0°C | -1.0% | -1.0hPa | 0V | 00:00:00 | 00:00:00 | 00:00:00 | |
| DB0UT-7 | 2026-09-02 07:35:36 | 46.42845 | 3.56700 | 149° | 120km/h | 12282m | -3.8m/s | 0°C | 0% | 0hPa | 0V | 00:00:00 | 00:00:00 | 00:00:00 | |
| DB0UT-7 | 2026-09-02 07:35:06 | 46.43609 | 3.55975 | 145° | 120km/h | 12396m | -3.7m/s | 0°C | 0% | 0hPa | 0V | 00:00:00 | 00:00:00 | 00:00:00 | |
| DB0UT-7 | 2026-09-02 07:34:36 | 46.44367 | 3.55214 | 145° | 124km/h | 12514m | -3.8m/s | 0°C | 0% | 0hPa | 0V | 00:00:00 | 00:00:00 | 00:00:00 | |
| DB0UT-7 | 2026-09-02 07:33:41 | 46.45771 | 3.53769 | 147° | 126km/h | 12721m | -3.7m/s | 0°C | 0% | 0hPa | 0V | 00:00:00 | 00:00:00 | 00:00:00 | |
| DB0UT-7 | 2026-09-02 07:33:11 | 46.46560 | 3.52993 | 147° | 113km/h | 12838m | -3.8m/s | 0°C | 0% | 0hPa | 0V | 00:00:00 | 00:00:00 | 00:00:00 | |
| DB0ND-19 | 2026-09-02 07:32:35 | 46.48049 | 3.51612 | 151° | 120km/h | 13066m | -3.8m/s | -59.8°C | -1.0% | -1.0hPa | 0V | 00:00:00 | 00:00:00 | 00:00:00 | |
| DB0UT-7 | 2026-09-02 07:31:45 | 46.48715 | 3.51072 | 145° | 99km/h | 13177m | -3.8m/s | 0°C | 0% | 0hPa | 0V | 00:00:00 | 00:00:00 | 00:00:00 | |
| DB0UT-7 | 2026-09-02 07:31:15 | 46.49360 | 3.50546 | 144° | 100km/h | 13326m | -4.0m/s | 0°C | 0% | 0hPa | 0V | 00:00:00 | 00:00:00 | 00:00:00 | |
| DB0UT-7 | 2026-09-02 07:30:45 | 46.49974 | 3.49949 | 157° | 102km/h | 13427m | -4.2m/s | 0°C | 0% | 0hPa | 0V | 00:00:00 | 00:00:00 | 00:00:00 | |
| DB0UT-7 | 2026-09-02 07:30:15 | 46.50597 | 3.49283 | 134° | 88km/h | 13558m | -3.9m/s | 0°C | 0% | 0hPa | 0V | 00:00:00 | 00:00:00 | 00:00:00 | |
| DB0UT-7 | 2026-09-02 07:29:45 | 46.51132 | 3.48734 | 136° | 86km/h | 13686m | -4.0m/s | 0°C | 0% | 0hPa | 0V | 00:00:00 | 00:00:00 | 00:00:00 | |
| DB0ND-19 | 2026-09-02 07:29:29 | 46.51387 | 3.48389 | 131° | 60km/h | 13635m | -4.5m/s | -58.4°C | -1.0% | -1.0hPa | 0V | 00:00:00 | 00:00:00 | 00:00:00 | |
| DB0ND-19 | 2026-09-02 07:28:57 | 46.51977 | 3.47661 | 150° | 86km/h | 13934m | -4.4m/s | -57.3°C | -1.0% | -1.0hPa | 0V | 00:00:00 | 00:00:00 | 00:00:00 | |
| DB0ND-19 | 2026-09-02 07:28:26 | 46.52339 | 3.47166 | 142° | 102km/h | 14042m | -4.7m/s | -57.7°C | -1.0% | -1.0hPa | 0V | 00:00:00 | 00:00:00 | 00:00:00 | |
| DB0UT-7 | 2026-09-02 07:28:00 | 46.52744 | 3.46653 | 140° | 68km/h | 14159m | -4.4m/s | 0°C | 0% | 0hPa | 0V | 00:00:00 | 00:00:00 | 00:00:00 | |
| DB0ND-19 | 2026-09-02 07:27:55 | 46.52809 | 3.46551 | 143° | 53km/h | 14182m | -4.9m/s | -57.2°C | -1.0% | -1.0hPa | 0V | 00:00:00 | 00:00:00 | 00:00:00 | |
| DB0UT-7 | 2026-09-02 07:27:20 | 46.53271 | 3.46045 | 151° | 68km/h | 14384m | -4.3m/s | 0°C | 0% | 0hPa | 0V | 00:00:00 | 00:00:00 | 00:00:00 | |
| DB0UT-7 | 2026-09-02 07:26:50 | 46.53608 | 3.45540 | 117° | 68km/h | 14481m | -4.3m/s | 0°C | 0% | 0hPa | 0V | 00:00:00 | 00:00:00 | 00:00:00 | |
| DB0UT-7 | 2026-09-02 07:26:20 | 46.53915 | 3.44981 | 147° | 78km/h | 14621m | -4.6m/s | 0°C | 0% | 0hPa | 0V | 00:00:00 | 00:00:00 | 00:00:00 | |
| DB0ND-19 | 2026-09-02 07:25:51 | 46.54168 | 3.44373 | 95° | 57km/h | 14756m | -4.8m/s | -57.4°C | -1.0% | -1.0hPa | 0V | 00:00:00 | 00:00:00 | 00:00:00 | |
| DB0UT-7 | 2026-09-02 07:25:17 | 46.54419 | 3.43629 | 106° | 69km/h | 14924m | -4.4m/s | 0°C | 0% | 0hPa | 0V | 00:00:00 | 00:00:00 | 00:00:00 | |
| DB0UT-7 | 2026-09-02 07:24:47 | 46.54609 | 3.42954 | 129° | 75km/h | 15076m | -4.9m/s | 0°C | 0% | 0hPa | 0V | 00:00:00 | 00:00:00 | 00:00:00 | |
| DB0UT-7 | 2026-09-02 07:24:17 | 46.54821 | 3.42147 | 99° | 73km/h | 15235m | -4.8m/s | 0°C | 0% | 0hPa | 0V | 00:00:00 | 00:00:00 | 00:00:00 | |
| DB0ND-19 | 2026-09-02 07:23:47 | 46.55098 | 3.41350 | 116° | 99km/h | 15390m | -5.2m/s | -55.9°C | -1.0% | -1.0hPa | 0V | 00:00:00 | 00:00:00 | 00:00:00 | |
| DB0UT-7 | 2026-09-02 07:23:25 | 46.55298 | 3.40894 | 144° | 78km/h | 15500m | -5.0m/s | 0°C | 0% | 0hPa | 0V | 00:00:00 | 00:00:00 | 00:00:00 | |
| DB0ND-19 | 2026-09-02 07:23:16 | 46.55416 | 3.40668 | 150° | 68km/h | 15546m | -5.4m/s | -55.8°C | -1.0% | -1.0hPa | 0V | 00:00:00 | 00:00:00 | 00:00:00 | |
| DB0UT-7 | 2026-09-02 07:22:55 | 46.55674 | 3.40277 | 108° | 53km/h | 15658m | -5.7m/s | 0°C | 0% | 0hPa | 0V | 00:00:00 | 00:00:00 | 00:00:00 | |
| DB0ND-19 | 2026-09-02 07:22:45 | 46.55781 | 3.40098 | 101° | 51km/h | 15711m | -4.8m/s | -54.8°C | -1.0% | -1.0hPa | 0V | 00:00:00 | 00:00:00 | 00:00:00 | |
| DB0ND-19 | 2026-09-02 07:22:14 | 46.55975 | 3.39595 | 115° | 73km/h | 15876m | -5.3m/s | -55.5°C | -1.0% | -1.0hPa | 0V | 00:00:00 | 00:00:00 | 00:00:00 | |
| DB0UT-7 | 2026-09-02 07:21:40 | 46.56119 | 3.38951 | 140° | 57km/h | 16057m | -5.6m/s | 0°C | 0% | 0hPa | 0V | 00:00:00 | 00:00:00 | 00:00:00 | |
| DB0UT-7 | 2026-09-02 07:21:10 | 46.56340 | 3.38467 | 90° | 35km/h | 16226m | -6.3m/s | 0°C | 0% | 0hPa | 0V | 00:00:00 | 00:00:00 | 00:00:00 | |
| DB0UT-7 | 2026-09-02 07:20:40 | 46.56421 | 3.38171 | 120° | 49km/h | 16405m | -5.5m/s | 0°C | 0% | 0hPa | 0V | 00:00:00 | 00:00:00 | 00:00:00 | |
| DB0ND-19 | 2026-09-02 07:20:10 | 46.56415 | 3.37691 | 57° | 55km/h | 16584m | -6.7m/s | -56.0°C | -1.0% | -1.0hPa | 0V | 00:00:00 | 00:00:00 | 00:00:00 | |
| DB0UT-7 | 2026-09-02 07:19:55 | 46.56388 | 3.37477 | 94° | 51km/h | 16677m | -6.1m/s | 0°C | 0% | 0hPa | 0V | 00:00:00 | 00:00:00 | 00:00:00 | |
| DB0UT-7 | 2026-09-02 07:19:25 | 46.56416 | 3.36939 | 86° | 53km/h | 16895m | -5.8m/s | 0°C | 0% | 0hPa | 0V | 00:00:00 | 00:00:00 | 00:00:00 | |
| DB0ND-19 | 2026-09-02 07:19:08 | 46.56422 | 3.36606 | 111° | 22km/h | 16969m | -6.6m/s | -57.0°C | -1.0% | -1.0hPa | 0V | 00:00:00 | 00:00:00 | 00:00:00 | |
| DB0UT-7 | 2026-09-02 07:18:36 | 46.56463 | 3.36026 | 69° | 58km/h | 17169m | -5.5m/s | 0°C | 0% | 0hPa | 0V | 00:00:00 | 00:00:00 | 00:00:00 | |
| DB0UT-7 | 2026-09-02 07:18:06 | 46.56596 | 3.35493 | 116° | 55km/h | 17344m | -5.7m/s | 0°C | 0% | 0hPa | 0V | 00:00:00 | 00:00:00 | 00:00:00 | |
| DB0UT-7 | 2026-09-02 07:17:36 | 46.56756 | 3.34980 | 139° | 42km/h | 17526m | -6.0m/s | 0°C | 0% | 0hPa | 0V | 00:00:00 | 00:00:00 | 00:00:00 | |
| DB0ND-19 | 2026-09-02 07:17:35 | 46.56771 | 3.34971 | 158° | 46km/h | 17532m | -6.0m/s | -57.0°C | -1.0% | -1.0hPa | 0V | 00:00:00 | 00:00:00 | 00:00:00 | |
| DB0ND-19 | 2026-09-02 07:17:04 | 46.56954 | 3.34523 | 72° | 31km/h | 17724m | -6.2m/s | -56.5°C | -1.0% | -1.0hPa | 0V | 00:00:00 | 00:00:00 | 00:00:00 | |
| DB0UT-7 | 2026-09-02 07:16:56 | 46.57012 | 3.34479 | 133° | 42km/h | 17768m | -6.5m/s | 0°C | 0% | 0hPa | 0V | 00:00:00 | 00:00:00 | 00:00:00 | |
| DB0UT-7 | 2026-09-02 07:16:22 | 46.57156 | 3.34100 | 122° | 40km/h | 17990m | -5.9m/s | 0°C | 0% | 0hPa | 0V | 00:00:00 | 00:00:00 | 00:00:00 | |
| DB0UT-7 | 2026-09-02 07:15:52 | 46.57282 | 3.33762 | 46° | 38km/h | 18186m | -7.1m/s | 0°C | 0% | 0hPa | 0V | 00:00:00 | 00:00:00 | 00:00:00 | |
| DB0UT-7 | 2026-09-02 07:15:20 | 46.57373 | 3.33437 | 66° | 31km/h | 18404m | -6.7m/s | 0°C | 0% | 0hPa | 0V | 00:00:00 | 00:00:00 | 00:00:00 | |
| DB0UT-7 | 2026-09-02 07:14:50 | 46.57384 | 3.33206 | 159° | 40km/h | 18614m | -7.4m/s | 0°C | 0% | 0hPa | 0V | 00:00:00 | 00:00:00 | 00:00:00 | |
| DB0UT-7 | 2026-09-02 07:14:20 | 46.57367 | 3.32914 | 35° | 26km/h | 18822m | -6.1m/s | 0°C | 0% | 0hPa | 0V | 00:00:00 | 00:00:00 | 00:00:00 | |
| DB0UT-7 | 2026-09-02 07:13:50 | 46.57361 | 3.32719 | 89° | 35km/h | 19048m | -8.0m/s | 0°C | 0% | 0hPa | 0V | 00:00:00 | 00:00:00 | 00:00:00 | |
| DB0UT-7 | 2026-09-02 07:13:15 | 46.57273 | 3.32397 | 105° | 33km/h | 19290m | -8.2m/s | 0°C | 0% | 0hPa | 0V | 00:00:00 | 00:00:00 | 00:00:00 | |
| DB0UT-7 | 2026-09-02 07:12:45 | 46.57317 | 3.32050 | 101° | 29km/h | 19385m | 4.8m/s | 0°C | 0% | 0hPa | 0V | 00:00:00 | 00:00:00 | 00:00:00 | |
| DB0UT-7 | 2026-09-02 07:12:15 | 46.57308 | 3.31728 | 75° | 26km/h | 19244m | 5.1m/s | 0°C | 0% | 0hPa | 0V | 00:00:00 | 00:00:00 | 00:00:00 | |
| DB0UT-7 | 2026-09-02 07:11:44 | 46.57247 | 3.31441 | 63° | 18km/h | 19110m | 5.2m/s | 0°C | 0% | 0hPa | 0V | 00:00:00 | 00:00:00 | 00:00:00 | |
| DB0UT-7 | 2026-09-02 07:11:14 | 46.57195 | 3.31252 | 100° | 20km/h | 18979m | 4.8m/s | 0°C | 0% | 0hPa | 0V | 00:00:00 | 00:00:00 | 00:00:00 | |
| DB0UT-7 | 2026-09-02 07:10:44 | 46.57215 | 3.31019 | 111° | 26km/h | 18838m | 5.3m/s | 0°C | 0% | 0hPa | 0V | 00:00:00 | 00:00:00 | 00:00:00 | |
| DB0UT-7 | 2026-09-02 07:10:14 | 46.57199 | 3.30766 | 65° | 27km/h | 18698m | 5.0m/s | 0°C | 0% | 0hPa | 0V | 00:00:00 | 00:00:00 | 00:00:00 | |
| DB0UT-7 | 2026-09-02 07:09:38 | 46.57196 | 3.30434 | 87° | 26km/h | 18540m | 4.3m/s | 0°C | 0% | 0hPa | 0V | 00:00:00 | 00:00:00 | 00:00:00 | |
| DB0UT-7 | 2026-09-02 07:09:08 | 46.57234 | 3.30161 | 112° | 31km/h | 18396m | 5.1m/s | 0°C | 0% | 0hPa | 0V | 00:00:00 | 00:00:00 | 00:00:00 | |
| DB0UT-7 | 2026-09-02 07:08:35 | 46.57314 | 3.29813 | 113° | 31km/h | 18269m | 3.2m/s | 0°C | 0% | 0hPa | 0V | 00:00:00 | 00:00:00 | 00:00:00 | |
| DB0UT-7 | 2026-09-02 07:08:04 | 46.57419 | 3.29508 | 132° | 37km/h | 18144m | 4.8m/s | 0°C | 0% | 0hPa | 0V | 00:00:00 | 00:00:00 | 00:00:00 | |
| DB0UT-7 | 2026-09-02 07:07:34 | 46.57597 | 3.29190 | 117° | 33km/h | 18016m | 3.9m/s | 0°C | 0% | 0hPa | 0V | 00:00:00 | 00:00:00 | 00:00:00 | |
| DB0UT-7 | 2026-09-02 07:07:04 | 46.57714 | 3.28880 | 116° | 40km/h | 17888m | 4.0m/s | 0°C | 0% | 0hPa | 0V | 00:00:00 | 00:00:00 | 00:00:00 | |
| DB0UT-7 | 2026-09-02 07:06:34 | 46.57894 | 3.28527 | 134° | 40km/h | 17752m | 5.3m/s | 0°C | 0% | 0hPa | 0V | 00:00:00 | 00:00:00 | 00:00:00 | |
| DB0UT-7 | 2026-09-02 07:06:04 | 46.58045 | 3.28156 | 121° | 44km/h | 17618m | 5.0m/s | 0°C | 0% | 0hPa | 0V | 00:00:00 | 00:00:00 | 00:00:00 | |
| DB0UT-7 | 2026-09-02 07:05:34 | 46.58216 | 3.27732 | 118° | 51km/h | 17490m | 4.4m/s | 0°C | 0% | 0hPa | 0V | 00:00:00 | 00:00:00 | 00:00:00 | |
| DB0UT-7 | 2026-09-02 07:05:04 | 46.58406 | 3.27230 | 119° | 53km/h | 17354m | 2.8m/s | 0°C | 0% | 0hPa | 0V | 00:00:00 | 00:00:00 | 00:00:00 | |
| DB0UT-7 | 2026-09-02 07:04:34 | 46.58564 | 3.26691 | 109° | 51km/h | 17232m | 4.6m/s | 0°C | 0% | 0hPa | 0V | 00:00:00 | 00:00:00 | 00:00:00 | |
| DB0UT-7 | 2026-09-02 07:04:04 | 46.58661 | 3.26145 | 95° | 47km/h | 17108m | 4.5m/s | 0°C | 0% | 0hPa | 0V | 00:00:00 | 00:00:00 | 00:00:00 | |
| DB0ND-19 | 2026-09-02 07:03:37 | 46.58678 | 3.25661 | 93° | 44km/h | 16997m | 4.9m/s | -57.2°C | -1.0% | -1.0hPa | 0V | 00:00:00 | 00:00:00 | 00:00:00 | |
| DB0UT-7 | 2026-09-02 07:03:10 | 46.58715 | 3.25215 | 106° | 49km/h | 16882m | 4.4m/s | 0°C | 0% | 0hPa | 0V | 00:00:00 | 00:00:00 | 00:00:00 | |
| DB0UT-7 | 2026-09-02 07:02:40 | 46.58742 | 3.24668 | 94° | 46km/h | 16757m | 4.5m/s | 0°C | 0% | 0hPa | 0V | 00:00:00 | 00:00:00 | 00:00:00 | |
| DB0UT-7 | 2026-09-02 07:02:10 | 46.58739 | 3.24168 | 90° | 40km/h | 16615m | 4.8m/s | 0°C | 0% | 0hPa | 0V | 00:00:00 | 00:00:00 | 00:00:00 | |
| DB0ND-19 | 2026-09-02 07:02:04 | 46.58734 | 3.23953 | 93° | 42km/h | 16571m | 3.6m/s | -56.3°C | -1.0% | -1.0hPa | 0V | 00:00:00 | 00:00:00 | 00:00:00 | |
| DB0UT-7 | 2026-09-02 07:01:37 | 46.58739 | 3.23673 | 87° | 33km/h | 16467m | 5.1m/s | 0°C | 0% | 0hPa | 0V | 00:00:00 | 00:00:00 | 00:00:00 | |
| DB0ND-19 | 2026-09-02 07:01:33 | 46.58737 | 3.23590 | 84° | 38km/h | 16462m | 4.3m/s | -56.1°C | -1.0% | -1.0hPa | 0V | 00:00:00 | 00:00:00 | 00:00:00 | |
| DB0ND-19 | 2026-09-02 07:01:02 | 46.58768 | 3.23231 | 112° | 29km/h | 16331m | 4.9m/s | -55.8°C | -1.0% | -1.0hPa | 0V | 00:00:00 | 00:00:00 | 00:00:00 | |
| DB0UT-7 | 2026-09-02 07:01:00 | 46.58771 | 3.23222 | 114° | 37km/h | 16322m | 4.3m/s | 0°C | 0% | 0hPa | 0V | 00:00:00 | 00:00:00 | 00:00:00 | |
| DB0UT-7 | 2026-09-02 07:00:30 | 46.58904 | 3.22874 | 125° | 49km/h | 16188m | 4.6m/s | 0°C | 0% | 0hPa | 0V | 00:00:00 | 00:00:00 | 00:00:00 | |
| DB0ND-19 | 2026-09-02 07:00:00 | 46.59150 | 3.22413 | 122° | 62km/h | 16058m | 5.3m/s | -55.9°C | -1.0% | -1.0hPa | 0V | 00:00:00 | 00:00:00 | 00:00:00 | |
| DB0ND-19 | 2026-09-02 06:59:29 | 46.59330 | 3.21747 | 107° | 60km/h | 15921m | 3.3m/s | -55.7°C | -1.0% | -1.0hPa | 0V | 00:00:00 | 00:00:00 | 00:00:00 | |
| DB0UT-7 | 2026-09-02 06:58:59 | 46.59424 | 3.21182 | 107° | 75km/h | 15799m | 3.7m/s | 0°C | 0% | 0hPa | 0V | 00:00:00 | 00:00:00 | 00:00:00 | |
| DB0ND-19 | 2026-09-02 06:58:58 | 46.59430 | 3.21151 | 103° | 42km/h | 15795m | 4.7m/s | -55.5°C | -1.0% | -1.0hPa | 0V | 00:00:00 | 00:00:00 | 00:00:00 | |
| DB0ND-19 | 2026-09-02 06:58:27 | 46.59609 | 3.20595 | 128° | 53km/h | 15658m | 5.7m/s | 0°C | -1.0% | -1.0hPa | 0V | 00:00:00 | 00:00:00 | 00:00:00 | |
| DB0UT-7 | 2026-09-02 06:57:47 | 46.60024 | 3.19778 | 128° | 80km/h | 15485m | 3.8m/s | 0°C | 0% | 0hPa | 0V | 00:00:00 | 00:00:00 | 00:00:00 | |
| DB0UT-7 | 2026-09-02 06:57:17 | 46.60332 | 3.19021 | 120° | 78km/h | 15363m | 4.1m/s | 0°C | 0% | 0hPa | 0V | 00:00:00 | 00:00:00 | 00:00:00 | |
| DB0UT-7 | 2026-09-02 06:56:06 | 46.60862 | 3.17113 | 105° | 71km/h | 15079m | 4.2m/s | 0°C | 0% | 0hPa | 0V | 00:00:00 | 00:00:00 | 00:00:00 | |
| DB0UT-7 | 2026-09-02 06:55:36 | 46.61016 | 3.16356 | 108° | 60km/h | 14959m | 3.8m/s | 0°C | 0% | 0hPa | 0V | 00:00:00 | 00:00:00 | 00:00:00 | |
| DB0ND-19 | 2026-09-02 06:55:20 | 46.61125 | 3.15987 | 121° | 66km/h | 14894m | 4.2m/s | -58.3°C | -1.0% | -1.0hPa | 0V | 00:00:00 | 00:00:00 | 00:00:00 | |
| DB0ND-19 | 2026-09-02 06:54:49 | 46.61323 | 3.15325 | 114° | 60km/h | 14764m | 3.9m/s | -57.9°C | -1.0% | -1.0hPa | 0V | 00:00:00 | 00:00:00 | 00:00:00 | |
| DB0UT-7 | 2026-09-02 06:54:22 | 46.61500 | 3.14856 | 123° | 64km/h | 14656m | 3.5m/s | 0°C | 0% | 0hPa | 0V | 00:00:00 | 00:00:00 | 00:00:00 | |
| DB0ND-19 | 2026-09-02 06:54:18 | 46.61544 | 3.14768 | 126° | 57km/h | 14638m | 3.2m/s | -57.7°C | -1.0% | -1.0hPa | 0V | 00:00:00 | 00:00:00 | 00:00:00 | |
| DB0UT-7 | 2026-09-02 06:53:52 | 46.61806 | 3.14302 | 130° | 69km/h | 14533m | 3.4m/s | 0°C | 0% | 0hPa | 0V | 00:00:00 | 00:00:00 | 00:00:00 | |
| DB0ND-19 | 2026-09-02 06:53:47 | 46.61873 | 3.14190 | 130° | 64km/h | 14512m | 4.4m/s | -58.0°C | -1.0% | -1.0hPa | 0V | 00:00:00 | 00:00:00 | 00:00:00 | |
| DB0ND-19 | 2026-09-02 06:53:16 | 46.62230 | 3.13606 | 139° | 58km/h | 14373m | 4.0m/s | -58.3°C | -1.0% | -1.0hPa | 0V | 00:00:00 | 00:00:00 | 00:00:00 | |
| DB0UT-7 | 2026-09-02 06:52:39 | 46.62664 | 3.13084 | 144° | 80km/h | 14229m | 3.7m/s | 0°C | 0% | 0hPa | 0V | 00:00:00 | 00:00:00 | 00:00:00 | |
| DB0UT-7 | 2026-09-02 06:52:09 | 46.63149 | 3.12543 | 139° | 82km/h | 14091m | 5.0m/s | 0°C | 0% | 0hPa | 0V | 00:00:00 | 00:00:00 | 00:00:00 | |
| DB0ND-19 | 2026-09-02 06:51:43 | 46.63600 | 3.11911 | 135° | 88km/h | 13979m | 2.9m/s | -57.6°C | -1.0% | -1.0hPa | 0V | 00:00:00 | 00:00:00 | 00:00:00 | |
| DB0ND-19 | 2026-09-02 06:51:12 | 46.64076 | 3.11213 | 137° | 77km/h | 13866m | 3.7m/s | -58.3°C | -1.0% | -1.0hPa | 0V | 00:00:00 | 00:00:00 | 00:00:00 | |
| DB0UT-7 | 2026-09-02 06:50:56 | 46.64308 | 3.10916 | 142° | 84km/h | 13810m | 3.7m/s | 0°C | 0% | 0hPa | 0V | 00:00:00 | 00:00:00 | 00:00:00 | |
| DB0UT-7 | 2026-09-02 06:50:26 | 46.64795 | 3.10311 | 141° | 100km/h | 13707m | 4.1m/s | 0°C | 0% | 0hPa | 0V | 00:00:00 | 00:00:00 | 00:00:00 | |
| DB0ND-19 | 2026-09-02 06:50:10 | 46.65075 | 3.09987 | 140° | 86km/h | 13643m | 3.3m/s | -59.1°C | -1.0% | -1.0hPa | 0V | 00:00:00 | 00:00:00 | 00:00:00 | |
| DB0ND-19 | 2026-09-02 06:49:39 | 46.65669 | 3.09364 | 144° | 102km/h | 13514m | 5.2m/s | -59.8°C | -1.0% | -1.0hPa | 0V | 00:00:00 | 00:00:00 | 00:00:00 | |
| DB0UT-7 | 2026-09-02 06:49:15 | 46.66202 | 3.08837 | 147° | 111km/h | 13412m | 4.5m/s | 0°C | 0% | 0hPa | 0V | 00:00:00 | 00:00:00 | 00:00:00 | |
| DB0ND-19 | 2026-09-02 06:49:08 | 46.66367 | 3.08676 | 148° | 111km/h | 13388m | 4.6m/s | -61.0°C | -1.0% | -1.0hPa | 0V | 00:00:00 | 00:00:00 | 00:00:00 | |
| DB0UT-7 | 2026-09-02 06:48:44 | 46.66900 | 3.08161 | 147° | 115km/h | 13294m | 4.3m/s | 0°C | 0% | 0hPa | 0V | 00:00:00 | 00:00:00 | 00:00:00 | |
| DB0ND-19 | 2026-09-02 06:48:39 | 46.67081 | 3.07986 | 146° | 108km/h | 13265m | 4.3m/s | -60.7°C | -1.0% | -1.0hPa | 0V | 00:00:00 | 00:00:00 | 00:00:00 | |
| DB0UT-7 | 2026-09-02 06:47:29 | 46.68692 | 3.06512 | 151° | 117km/h | 12992m | 4.1m/s | 0°C | 0% | 0hPa | 0V | 00:00:00 | 00:00:00 | 00:00:00 | |
| DB0UT-7 | 2026-09-02 06:46:59 | 46.69453 | 3.05849 | 149° | 128km/h | 12874m | 3.1m/s | 0°C | 0% | 0hPa | 0V | 00:00:00 | 00:00:00 | 00:00:00 | |
| DB0UT-7 | 2026-09-02 06:45:47 | 46.71455 | 3.03942 | 146° | 128km/h | 12587m | 4.0m/s | 0°C | 0% | 0hPa | 0V | 00:00:00 | 00:00:00 | 00:00:00 | |
| DB0UT-7 | 2026-09-02 06:45:17 | 46.72258 | 3.03153 | 147° | 126km/h | 12466m | 4.7m/s | 0°C | 0% | 0hPa | 0V | 00:00:00 | 00:00:00 | 00:00:00 | |
| DB0UT-7 | 2026-09-02 06:44:41 | 46.73216 | 3.02236 | 149° | 124km/h | 12317m | 4.6m/s | 0°C | 0% | 0hPa | 0V | 00:00:00 | 00:00:00 | 00:00:00 | |
| DB0UT-7 | 2026-09-02 06:44:06 | 46.74154 | 3.01394 | 153° | 124km/h | 12175m | 3.9m/s | 0°C | 0% | 0hPa | 0V | 00:00:00 | 00:00:00 | 00:00:00 | |
| DB0UT-7 | 2026-09-02 06:43:36 | 46.74988 | 3.00736 | 153° | 131km/h | 12054m | 3.4m/s | 0°C | 0% | 0hPa | 0V | 00:00:00 | 00:00:00 | 00:00:00 | |
| DB0UT-7 | 2026-09-02 06:42:31 | 46.76911 | 2.99377 | 158° | 137km/h | 11789m | 3.9m/s | 0°C | 0% | 0hPa | 0V | 00:00:00 | 00:00:00 | 00:00:00 | |
| DB0UT-7 | 2026-09-02 06:42:01 | 46.77872 | 2.98783 | 158° | 137km/h | 11676m | 4.3m/s | 0°C | 0% | 0hPa | 0V | 00:00:00 | 00:00:00 | 00:00:00 | |
| DB0UT-7 | 2026-09-02 06:40:41 | 46.80357 | 2.97012 | 152° | 135km/h | 11363m | 4.1m/s | 0°C | 0% | 0hPa | 0V | 00:00:00 | 00:00:00 | 00:00:00 | |
| DB0UT-7 | 2026-09-02 06:40:11 | 46.81262 | 2.96301 | 154° | 137km/h | 11245m | 4.2m/s | 0°C | 0% | 0hPa | 0V | 00:00:00 | 00:00:00 | 00:00:00 | |
| DB0UT-7 | 2026-09-02 06:39:39 | 46.82258 | 2.95569 | 152° | 137km/h | 11082m | 4.4m/s | 0°C | 0% | 0hPa | 0V | 00:00:00 | 00:00:00 | 00:00:00 | |
| DB0UT-7 | 2026-09-02 06:39:08 | 46.83211 | 2.94842 | 153° | 135km/h | 11002m | 3.6m/s | 0°C | 0% | 0hPa | 0V | 00:00:00 | 00:00:00 | 00:00:00 | |
| DB0UT-7 | 2026-09-02 06:38:38 | 46.84117 | 2.94135 | 152° | 133km/h | 10885m | 3.5m/s | 0°C | 0% | 0hPa | 0V | 00:00:00 | 00:00:00 | 00:00:00 | |
| DB0UT-7 | 2026-09-02 06:38:08 | 46.85006 | 2.93411 | 151° | 131km/h | 10768m | 3.9m/s | 0°C | 0% | 0hPa | 0V | 00:00:00 | 00:00:00 | 00:00:00 | |
| DB0UT-7 | 2026-09-02 06:37:07 | 46.86767 | 2.91922 | 149° | 130km/h | 10533m | 4.3m/s | 0°C | 0% | 0hPa | 0V | 00:00:00 | 00:00:00 | 00:00:00 | |
| DB0UT-7 | 2026-09-02 06:36:37 | 46.87608 | 2.91179 | 148° | 128km/h | 10401m | 3.1m/s | 0°C | 0% | 0hPa | 0V | 00:00:00 | 00:00:00 | 00:00:00 | |
| DB0UT-7 | 2026-09-02 06:36:05 | 46.88486 | 2.90389 | 148° | 126km/h | 10284m | 3.7m/s | 0°C | 0% | 0hPa | 0V | 00:00:00 | 00:00:00 | 00:00:00 |